Terminal Aerodrome Forecast
Issued by NWS

Home | Current Version | Previous Version | Text Only | Print | Product List | Glossary Off
Versions: 1 2 3 4 5 6 7 8 9 10 11 12 13 14 15 16 17 18 19

000
FTUS43 KUNR 191723
TAFGCC
TAF
KGCC 191723Z 1918/2018 26010KT P6SM BKN060
      TEMPO 1918/1920 -SHRA BKN040
     FM192000 31015G25KT P6SM -SHRA BKN040
     FM192300 25010KT P6SM BKN070
     FM200700 23015G25KT P6SM SCT080=

USA.gov is the U.S. government's official web portal to all federal, state and local government web resources and services.